createdAt,value
2018-12-19T00:02:56.453Z,24.73
2018-12-19T00:06:03.149Z,24.30
2018-12-19T00:09:08.426Z,26.83
2018-12-19T00:12:14.309Z,25.70
2018-12-19T00:15:19.038Z,28.13
2018-12-19T00:18:25.597Z,24.80
2018-12-19T00:21:30.452Z,27.07
2018-12-19T00:24:35.048Z,26.50
2018-12-19T00:27:41.936Z,26.13
2018-12-19T00:30:48.542Z,24.93
2018-12-19T00:33:55.266Z,24.60
2018-12-19T00:37:01.726Z,31.67
2018-12-19T00:40:07.657Z,28.27
2018-12-19T00:43:12.307Z,25.93
2018-12-19T00:46:17.007Z,27.60
2018-12-19T00:49:21.714Z,26.40
2018-12-19T00:52:26.304Z,30.17
2018-12-19T00:55:30.881Z,26.53
2018-12-19T00:58:35.429Z,22.33
2018-12-19T01:01:40.018Z,22.53
2018-12-19T01:04:48.055Z,23.07
2018-12-19T01:07:51.157Z,21.87
2018-12-19T01:10:55.648Z,19.23
2018-12-19T01:14:00.303Z,21.10
2018-12-19T01:17:04.934Z,23.50
2018-12-19T01:20:09.569Z,24.77
2018-12-19T01:23:14.197Z,22.43
2018-12-19T01:26:18.723Z,23.37
2018-12-19T01:29:23.152Z,23.00
2018-12-19T01:32:27.722Z,19.50
2018-12-19T01:35:32.355Z,19.40
2018-12-19T01:38:36.898Z,23.77
2018-12-19T01:41:41.588Z,20.13
2018-12-19T01:44:46.328Z,23.00
2018-12-19T01:47:51.007Z,21.37
2018-12-19T01:50:55.652Z,23.10
2018-12-19T01:54:00.240Z,20.70
2018-12-19T01:57:04.849Z,22.13
2018-12-19T02:00:09.636Z,23.93
2018-12-19T02:03:14.290Z,20.13
2018-12-19T02:06:19.040Z,20.40
2018-12-19T02:09:28.868Z,22.67
2018-12-19T02:12:30.162Z,19.50
2018-12-19T02:15:34.896Z,21.77
2018-12-19T02:18:39.730Z,22.17
2018-12-19T02:21:44.361Z,22.33
2018-12-19T02:24:48.921Z,22.93
2018-12-19T02:27:53.722Z,20.47
2018-12-19T02:30:58.318Z,21.33
2018-12-19T02:34:03.079Z,19.30
2018-12-19T02:37:07.813Z,21.80
2018-12-19T02:40:12.511Z,21.57
2018-12-19T02:43:17.266Z,23.63
2018-12-19T02:46:21.902Z,24.60
2018-12-19T02:49:26.567Z,26.50
2018-12-19T02:52:31.287Z,22.27
2018-12-19T02:55:35.904Z,21.00
2018-12-19T02:58:40.496Z,20.97
2018-12-19T03:01:45.142Z,19.10
2018-12-19T03:04:49.698Z,18.47
2018-12-19T03:07:54.541Z,18.40
2018-12-19T03:10:59.308Z,21.63
2018-12-19T03:14:04.005Z,20.40
2018-12-19T03:17:08.701Z,21.93
2018-12-19T03:20:13.272Z,18.70
2018-12-19T03:23:17.854Z,20.53
2018-12-19T03:26:22.465Z,21.57
2018-12-19T03:29:27.111Z,17.73
2018-12-19T03:32:31.684Z,19.97
2018-12-19T03:35:36.275Z,17.63
2018-12-19T03:38:40.861Z,18.07
2018-12-19T03:41:45.847Z,17.63
2018-12-19T03:44:50.468Z,22.83
2018-12-19T03:47:56.120Z,18.00
2018-12-19T03:51:00.730Z,18.33
2018-12-19T03:54:05.289Z,23.87
2018-12-19T03:57:10.321Z,20.37
2018-12-19T04:00:14.985Z,19.77
2018-12-19T04:03:19.715Z,20.43
2018-12-19T04:06:24.408Z,18.50
2018-12-19T04:09:29.034Z,20.20
2018-12-19T04:12:33.621Z,19.50
2018-12-19T04:15:38.211Z,16.57
2018-12-19T04:18:45.723Z,23.07
2018-12-19T04:21:50.275Z,18.60
2018-12-19T04:24:54.885Z,18.27
2018-12-19T04:27:59.570Z,17.67
2018-12-19T04:31:04.188Z,19.77
2018-12-19T04:34:08.799Z,19.23
2018-12-19T04:37:13.361Z,18.87
2018-12-19T04:40:17.992Z,23.30
2018-12-19T04:43:22.588Z,18.60
2018-12-19T04:46:27.181Z,18.80
2018-12-19T04:49:31.714Z,20.67
2018-12-19T04:52:36.198Z,18.43
2018-12-19T04:55:41.710Z,19.37
2018-12-19T04:58:46.231Z,20.67
2018-12-19T05:01:50.864Z,21.00
2018-12-19T05:04:55.527Z,20.50
2018-12-19T05:08:00.224Z,21.40
2018-12-19T05:11:04.966Z,19.97
2018-12-19T05:14:09.578Z,17.90
2018-12-19T05:17:14.202Z,19.37
2018-12-19T05:20:18.688Z,20.60
2018-12-19T05:23:23.369Z,18.43
2018-12-19T05:26:27.993Z,19.90
2018-12-19T05:29:32.634Z,17.90
2018-12-19T05:32:37.217Z,20.43
2018-12-19T05:35:41.814Z,19.23
2018-12-19T05:38:46.442Z,19.63
2018-12-19T05:41:51.114Z,24.20
2018-12-19T05:44:55.671Z,24.30
2018-12-19T05:48:00.202Z,24.43
2018-12-19T05:51:04.775Z,20.63
2018-12-19T05:54:09.421Z,21.47
2018-12-19T05:57:14.188Z,23.87
2018-12-19T06:00:18.730Z,21.70
2018-12-19T06:03:25.481Z,20.57
2018-12-19T06:06:30.243Z,26.67
2018-12-19T06:09:34.885Z,21.00
2018-12-19T06:12:39.516Z,19.90
2018-12-19T06:15:44.301Z,23.47
2018-12-19T06:18:48.949Z,23.47
2018-12-19T06:21:53.571Z,23.70
2018-12-19T06:24:58.214Z,21.13
2018-12-19T06:28:02.867Z,25.10
2018-12-19T06:31:07.572Z,25.43
2018-12-19T06:34:12.222Z,21.57
2018-12-19T06:37:16.746Z,27.73
2018-12-19T06:40:21.337Z,22.53
2018-12-19T06:43:25.876Z,26.83
2018-12-19T06:46:30.531Z,26.40
2018-12-19T06:49:35.169Z,26.97
2018-12-19T06:52:39.726Z,28.80
2018-12-19T06:55:44.265Z,23.03
2018-12-19T06:58:48.953Z,26.73
2018-12-19T07:01:53.593Z,25.77
2018-12-19T07:04:58.197Z,28.73
2018-12-19T07:08:02.749Z,22.53
2018-12-19T07:11:07.373Z,24.50
2018-12-19T07:14:11.926Z,25.10
2018-12-19T07:17:16.685Z,23.60
2018-12-19T07:20:21.391Z,28.03
2018-12-19T07:23:27.134Z,23.20
2018-12-19T07:26:31.852Z,21.87
2018-12-19T07:29:36.578Z,23.17
2018-12-19T07:32:41.217Z,22.60
2018-12-19T07:35:46.740Z,24.93
2018-12-19T07:38:51.343Z,22.03
2018-12-19T07:41:55.986Z,26.17
2018-12-19T07:45:00.485Z,27.07
2018-12-19T07:48:05.131Z,23.70
2018-12-19T07:51:09.813Z,26.33
2018-12-19T07:54:14.362Z,24.50
2018-12-19T07:57:18.986Z,27.57
2018-12-19T08:00:27.434Z,26.63
2018-12-19T08:03:30.497Z,25.17
2018-12-19T08:06:35.206Z,32.57
2018-12-19T08:09:39.786Z,41.63
2018-12-19T08:12:44.457Z,26.13
2018-12-19T08:15:48.966Z,22.57
2018-12-19T08:19:09.678Z,20.27
2018-12-19T08:22:19.934Z,21.13
2018-12-19T08:25:24.522Z,19.77
2018-12-19T08:28:29.148Z,24.63
2018-12-19T08:31:39.913Z,20.77
2018-12-19T08:34:44.490Z,18.40
2018-12-19T08:37:49.141Z,27.47
2018-12-19T08:40:58.781Z,27.77
2018-12-19T08:44:00.528Z,21.20
2018-12-19T08:47:05.101Z,21.30
2018-12-19T08:50:10.468Z,18.77
2018-12-19T08:53:14.974Z,22.17
2018-12-19T08:56:19.616Z,20.27
2018-12-19T08:59:24.165Z,20.50
2018-12-19T09:02:28.923Z,18.47
2018-12-19T09:05:33.487Z,19.90
2018-12-19T09:08:38.335Z,20.47
2018-12-19T09:11:42.981Z,23.17
2018-12-19T09:14:47.685Z,19.93
2018-12-19T09:17:52.277Z,20.13
2018-12-19T09:20:56.828Z,23.23
2018-12-19T09:24:01.546Z,21.77
2018-12-19T09:27:06.115Z,20.17
2018-12-19T09:30:10.649Z,25.10
2018-12-19T09:33:15.244Z,20.40
2018-12-19T09:36:19.956Z,24.37
2018-12-19T09:39:24.497Z,22.13
2018-12-19T09:42:29.094Z,22.50
2018-12-19T09:45:33.681Z,22.03
2018-12-19T09:48:38.138Z,23.77
2018-12-19T09:51:42.655Z,28.83
2018-12-19T09:54:47.257Z,21.77
2018-12-19T09:57:52.058Z,26.80
2018-12-19T10:00:57.213Z,25.20
2018-12-19T10:04:02.063Z,28.80
2018-12-19T10:07:06.696Z,33.33
2018-12-19T10:10:11.486Z,31.17
2018-12-19T10:13:16.264Z,27.83
2018-12-19T10:16:20.801Z,23.77
2018-12-19T10:19:25.386Z,29.00
2018-12-19T10:22:32.104Z,27.03
2018-12-19T10:25:36.715Z,30.03
2018-12-19T10:28:41.382Z,30.23
2018-12-19T10:31:46.107Z,29.97
2018-12-19T10:34:50.769Z,34.77
2018-12-19T10:37:55.399Z,30.80
2018-12-19T10:41:00.056Z,31.63
2018-12-19T10:44:04.920Z,25.97
2018-12-19T10:47:09.446Z,28.03
2018-12-19T10:50:14.051Z,26.80
2018-12-19T10:53:18.709Z,32.23
2018-12-19T10:56:23.234Z,30.60
2018-12-19T10:59:27.974Z,29.20
2018-12-19T11:02:32.617Z,27.37
2018-12-19T11:05:37.371Z,26.73
2018-12-19T11:08:42.966Z,31.90
2018-12-19T11:11:47.557Z,35.13
2018-12-19T11:14:52.266Z,29.77
2018-12-19T11:17:56.921Z,35.43
2018-12-19T11:21:01.769Z,33.50
2018-12-19T11:24:06.488Z,33.73
2018-12-19T11:27:17.629Z,28.17
2018-12-19T11:30:22.347Z,26.43
2018-12-19T11:33:27.026Z,26.67
2018-12-19T11:36:31.606Z,24.23
2018-12-19T11:39:37.142Z,21.63
2018-12-19T11:42:41.763Z,25.43
2018-12-19T11:45:46.406Z,29.30
2018-12-19T11:48:51.004Z,33.97
2018-12-19T11:51:55.637Z,24.40
2018-12-19T11:55:00.339Z,22.20
2018-12-19T11:58:05.082Z,26.00
2018-12-19T12:01:09.675Z,31.47
2018-12-19T12:04:14.339Z,26.17
2018-12-19T12:07:21.394Z,25.47
2018-12-19T12:10:25.951Z,23.80
2018-12-19T12:13:30.655Z,24.20
2018-12-19T12:16:35.337Z,22.63
2018-12-19T12:19:39.940Z,24.67
2018-12-19T12:22:44.685Z,23.90
2018-12-19T12:25:49.303Z,29.27
2018-12-19T12:28:53.953Z,30.97
2018-12-19T12:31:58.561Z,31.43
2018-12-19T12:35:03.371Z,37.73
2018-12-19T12:38:08.071Z,36.03
2018-12-19T12:41:12.611Z,30.20
2018-12-19T12:44:17.121Z,28.57
2018-12-19T12:47:21.947Z,29.47
2018-12-19T12:50:26.531Z,31.90
2018-12-19T12:53:31.209Z,29.73
2018-12-19T12:56:35.862Z,31.60
2018-12-19T12:59:40.542Z,33.50
2018-12-19T13:02:45.193Z,26.80
2018-12-19T13:05:49.701Z,29.07
2018-12-19T13:08:54.261Z,30.67
2018-12-19T13:11:59.060Z,21.47
2018-12-19T13:15:03.850Z,23.97
2018-12-19T13:18:08.466Z,24.47
2018-12-19T13:21:13.047Z,22.70
2018-12-19T13:24:17.918Z,28.00
2018-12-19T13:27:22.698Z,28.73
2018-12-19T13:30:27.237Z,23.10
2018-12-19T13:33:32.033Z,22.33
2018-12-19T13:36:36.834Z,22.30
2018-12-19T13:39:41.442Z,24.13
2018-12-19T13:42:45.981Z,25.40
2018-12-19T13:45:50.478Z,28.43
2018-12-19T13:48:55.086Z,25.73
2018-12-19T13:51:59.735Z,24.97
2018-12-19T13:55:04.592Z,26.40
2018-12-19T13:58:09.262Z,33.07
2018-12-19T14:01:13.938Z,31.10
2018-12-19T14:04:18.593Z,26.77
2018-12-19T14:07:23.241Z,26.50
2018-12-19T14:10:27.779Z,31.60
2018-12-19T14:13:32.458Z,26.37
2018-12-19T14:16:36.953Z,30.23
2018-12-19T14:19:41.562Z,28.60
2018-12-19T14:22:46.209Z,24.33
2018-12-19T14:25:51.189Z,30.93
2018-12-19T14:28:55.809Z,32.20
2018-12-19T14:32:00.409Z,30.07
2018-12-19T14:35:05.253Z,33.53
2018-12-19T14:38:09.853Z,28.53
2018-12-19T14:41:14.533Z,31.93
2018-12-19T14:44:19.217Z,28.07
2018-12-19T14:47:23.908Z,36.67
2018-12-19T14:50:28.502Z,44.77
2018-12-19T14:53:33.091Z,40.60
2018-12-19T14:56:37.652Z,34.57
2018-12-19T14:59:42.260Z,35.07
2018-12-19T15:02:46.989Z,32.57
2018-12-19T15:05:51.606Z,34.67
2018-12-19T15:08:56.191Z,47.87
2018-12-19T15:12:00.942Z,68.37
2018-12-19T15:15:06.890Z,67.87
2018-12-19T15:18:11.580Z,57.70
2018-12-19T15:21:16.189Z,57.03
2018-12-19T15:24:20.814Z,65.43
2018-12-19T15:27:25.364Z,75.53
2018-12-19T15:30:29.895Z,68.27
2018-12-19T15:33:34.561Z,91.20
2018-12-19T15:36:39.334Z,177.20
2018-12-19T15:39:43.963Z,222.00
2018-12-19T15:42:48.652Z,175.33
2018-12-19T15:45:53.270Z,147.03
2018-12-19T15:48:57.991Z,213.93
2018-12-19T15:52:02.647Z,227.80
2018-12-19T15:55:07.331Z,381.93
2018-12-19T15:58:12.005Z,142.53
2018-12-19T16:01:16.581Z,137.83
2018-12-19T16:04:21.131Z,91.90
2018-12-19T16:07:25.808Z,91.50
2018-12-19T16:10:30.461Z,84.97
2018-12-19T16:13:35.222Z,95.43
2018-12-19T16:16:39.884Z,82.30
2018-12-19T16:19:44.341Z,112.03
2018-12-19T16:22:48.845Z,96.93
2018-12-19T16:25:53.376Z,115.97
2018-12-19T16:28:58.017Z,121.30
2018-12-19T16:32:02.776Z,139.57
2018-12-19T16:35:07.846Z,125.80
2018-12-19T16:38:12.580Z,140.37
2018-12-19T16:41:17.253Z,148.87
2018-12-19T16:44:22.316Z,166.13
2018-12-19T16:47:26.921Z,107.60
2018-12-19T16:50:31.522Z,111.43
2018-12-19T16:53:36.257Z,131.97
2018-12-19T16:56:40.978Z,105.77
2018-12-19T16:59:45.556Z,114.33
2018-12-19T17:02:50.162Z,160.20
2018-12-19T17:05:54.823Z,135.40
2018-12-19T17:09:00.590Z,136.93
2018-12-19T17:12:07.271Z,130.00
2018-12-19T17:15:11.910Z,94.40
2018-12-19T17:18:16.504Z,106.27
2018-12-19T17:21:21.142Z,116.37
2018-12-19T17:24:30.875Z,106.30
2018-12-19T17:27:35.538Z,102.60
2018-12-19T17:30:40.130Z,104.23
2018-12-19T17:33:44.662Z,97.10
2018-12-19T17:36:49.237Z,113.87
2018-12-19T17:39:53.884Z,142.33
2018-12-19T17:42:59.533Z,157.27
2018-12-19T17:46:04.439Z,178.63
2018-12-19T17:49:09.098Z,164.23
2018-12-19T17:52:13.809Z,170.07
2018-12-19T17:55:18.393Z,135.57
2018-12-19T17:58:23.042Z,138.60
2018-12-19T18:01:27.646Z,127.63
2018-12-19T18:04:32.253Z,143.67
2018-12-19T18:07:36.860Z,164.17
2018-12-19T18:10:41.504Z,154.30
2018-12-19T18:13:46.172Z,145.00
2018-12-19T18:16:50.933Z,135.40
2018-12-19T18:19:55.584Z,134.03
2018-12-19T18:23:00.231Z,104.00
2018-12-19T18:26:04.944Z,89.73
2018-12-19T18:29:09.537Z,108.73
2018-12-19T18:32:14.311Z,106.23
2018-12-19T18:35:19.252Z,86.10
2018-12-19T18:38:23.884Z,89.97
2018-12-19T18:41:28.438Z,78.03
2018-12-19T18:44:33.306Z,67.77
2018-12-19T18:47:38.031Z,68.57
2018-12-19T18:50:42.790Z,61.80
2018-12-19T18:53:47.386Z,62.23
2018-12-19T18:56:51.973Z,180.90
2018-12-19T18:59:56.595Z,62.73
2018-12-19T19:03:01.272Z,71.50
2018-12-19T19:06:05.951Z,65.07
2018-12-19T19:09:10.554Z,65.00
2018-12-19T19:12:15.412Z,64.33
2018-12-19T19:15:20.009Z,66.10
2018-12-19T19:18:24.613Z,75.10
2018-12-19T19:21:29.312Z,74.07
2018-12-19T19:24:33.987Z,74.77
2018-12-19T19:27:38.597Z,75.97
2018-12-19T19:30:43.226Z,77.93
2018-12-19T19:33:47.803Z,70.70
2018-12-19T19:36:52.531Z,67.57
2018-12-19T19:39:57.484Z,76.67
2018-12-19T19:43:02.102Z,84.60
2018-12-19T19:46:06.676Z,80.37
2018-12-19T19:49:11.382Z,74.80
2018-12-19T19:52:15.986Z,74.40
2018-12-19T19:55:20.589Z,77.00
2018-12-19T19:58:25.384Z,73.30
2018-12-19T20:01:30.118Z,79.43
2018-12-19T20:04:34.761Z,72.00
2018-12-19T20:07:39.370Z,78.97
2018-12-19T20:10:44.066Z,70.33
2018-12-19T20:13:48.648Z,116.37
2018-12-19T20:16:58.373Z,91.80
2018-12-19T20:20:03.037Z,85.63
2018-12-19T20:23:07.594Z,77.60
2018-12-19T20:26:12.189Z,85.23
2018-12-19T20:29:16.837Z,91.57
2018-12-19T20:32:21.558Z,88.90
2018-12-19T20:35:26.133Z,121.67
2018-12-19T20:38:31.734Z,116.10
2018-12-19T20:41:36.361Z,76.10
2018-12-19T20:44:41.018Z,103.93
2018-12-19T20:47:45.726Z,73.13
2018-12-19T20:50:50.330Z,70.40
2018-12-19T20:53:56.051Z,65.77
2018-12-19T20:57:00.770Z,67.13
2018-12-19T21:00:06.790Z,72.20
2018-12-19T21:03:11.794Z,80.23
2018-12-19T21:06:16.457Z,67.97
2018-12-19T21:09:21.118Z,64.20
2018-12-19T21:12:25.722Z,77.83
2018-12-19T21:15:30.308Z,62.63
2018-12-19T21:18:40.378Z,66.47
2018-12-19T21:21:44.997Z,67.77
2018-12-19T21:24:49.545Z,66.47
2018-12-19T21:27:54.241Z,65.30
2018-12-19T21:30:58.894Z,66.07
2018-12-19T21:34:03.667Z,68.87
2018-12-19T21:37:08.257Z,71.17
2018-12-19T21:40:13.981Z,72.97
2018-12-19T21:43:18.750Z,67.23
2018-12-19T21:46:23.381Z,66.33
2018-12-19T21:49:28.124Z,64.57
2018-12-19T21:52:32.740Z,66.67
2018-12-19T21:55:37.475Z,69.23
2018-12-19T21:58:42.371Z,70.13
2018-12-19T22:01:46.994Z,79.93
2018-12-19T22:04:51.653Z,70.07
2018-12-19T22:07:56.516Z,68.23
2018-12-19T22:11:01.310Z,64.67
2018-12-19T22:14:06.245Z,72.03
2018-12-19T22:17:15.854Z,71.70
2018-12-19T22:20:20.434Z,71.43
2018-12-19T22:23:24.981Z,65.80
2018-12-19T22:26:30.970Z,73.17
2018-12-19T22:29:35.992Z,62.67
2018-12-19T22:32:40.585Z,61.73
2018-12-19T22:35:45.150Z,62.10
2018-12-19T22:38:49.776Z,61.10
2018-12-19T22:41:54.377Z,62.43
2018-12-19T22:44:58.908Z,63.43
2018-12-19T22:48:03.483Z,65.10
2018-12-19T22:51:08.185Z,56.03
2018-12-19T22:54:12.823Z,58.97
2018-12-19T22:57:17.403Z,61.27
2018-12-19T23:00:22.341Z,55.33
2018-12-19T23:03:34.173Z,57.77
2018-12-19T23:06:38.907Z,56.73
2018-12-19T23:09:43.598Z,60.23
2018-12-19T23:12:48.389Z,57.07
2018-12-19T23:15:53.063Z,60.10
2018-12-19T23:19:03.138Z,59.10
2018-12-19T23:22:13.468Z,56.37
2018-12-19T23:25:23.750Z,63.03
2018-12-19T23:28:30.439Z,60.57
2018-12-19T23:31:35.566Z,55.33
2018-12-19T23:34:40.225Z,52.43
2018-12-19T23:37:45.000Z,57.27
2018-12-19T23:40:49.660Z,59.27
2018-12-19T23:43:54.460Z,54.97
2018-12-19T23:46:59.324Z,53.63
2018-12-19T23:50:04.184Z,57.23
2018-12-19T23:53:08.754Z,51.93
2018-12-19T23:56:13.273Z,52.27
2018-12-19T23:59:17.940Z,51.03
